createdAt,value
2018-03-29T00:00:53.754Z,0.00
2018-03-29T00:01:53.799Z,0.00
2018-03-29T00:02:54.387Z,0.00
2018-03-29T00:03:53.892Z,0.00
2018-03-29T00:04:53.970Z,0.00
2018-03-29T00:05:53.982Z,0.00
2018-03-29T00:06:54.029Z,0.00
2018-03-29T00:07:54.075Z,0.00
2018-03-29T00:08:54.118Z,0.00
2018-03-29T00:09:54.185Z,0.00
2018-03-29T00:10:54.208Z,0.00
2018-03-29T00:11:54.256Z,0.00
2018-03-29T00:12:54.328Z,0.00
2018-03-29T00:13:54.344Z,0.00
2018-03-29T00:14:54.388Z,0.00
2018-03-29T00:15:54.436Z,0.00
2018-03-29T00:16:54.479Z,0.00
2018-03-29T00:17:54.547Z,0.00
2018-03-29T00:18:54.572Z,0.00
2018-03-29T00:19:54.617Z,0.00
2018-03-29T00:20:54.664Z,0.00
2018-03-29T00:21:54.704Z,0.00
2018-03-29T00:22:54.775Z,0.00
2018-03-29T00:23:54.842Z,0.00
2018-03-29T00:24:54.844Z,0.00
2018-03-29T00:25:54.884Z,0.00
2018-03-29T00:26:54.933Z,0.00
2018-03-29T00:27:54.977Z,0.00
2018-03-29T00:28:55.046Z,0.00
2018-03-29T00:29:55.067Z,0.00
2018-03-29T00:30:55.115Z,0.00
2018-03-29T00:31:55.156Z,0.00
2018-03-29T00:32:55.232Z,0.00
2018-03-29T00:33:55.246Z,0.00
2018-03-29T00:34:55.322Z,0.00
2018-03-29T00:35:55.336Z,0.00
2018-03-29T00:36:55.380Z,0.00
2018-03-29T00:37:55.427Z,0.00
2018-03-29T00:38:55.472Z,0.00
2018-03-29T00:39:55.542Z,0.00
2018-03-29T00:40:55.560Z,0.00
2018-03-29T00:41:55.607Z,0.00
2018-03-29T00:42:55.654Z,0.00
2018-03-29T00:43:55.737Z,0.00
2018-03-29T00:44:55.766Z,0.00
2018-03-29T00:45:55.788Z,0.00
2018-03-29T00:46:55.840Z,0.00
2018-03-29T00:47:55.879Z,0.00
2018-03-29T00:48:55.921Z,0.00
2018-03-29T00:49:55.991Z,0.00
2018-03-29T00:50:56.888Z,0.00
2018-03-29T00:51:56.064Z,0.00
2018-03-29T00:52:56.104Z,0.00
2018-03-29T00:53:56.149Z,0.00
2018-03-29T00:54:56.234Z,0.00
2018-03-29T00:55:56.241Z,0.00
2018-03-29T00:56:56.283Z,0.00
2018-03-29T00:57:56.330Z,0.00
2018-03-29T00:58:56.375Z,0.00
2018-03-29T00:59:56.453Z,0.00
2018-03-29T01:00:56.465Z,0.00
2018-03-29T01:01:56.509Z,0.00
2018-03-29T01:02:56.555Z,0.00
2018-03-29T01:03:56.600Z,0.00
2018-03-29T01:04:56.672Z,0.00
2018-03-29T01:05:56.690Z,0.00
2018-03-29T01:06:56.758Z,0.00
2018-03-29T01:07:56.786Z,0.00
2018-03-29T01:08:56.827Z,0.00
2018-03-29T01:09:56.877Z,0.00
2018-03-29T01:10:56.915Z,0.00
2018-03-29T01:11:56.991Z,0.00
2018-03-29T01:12:57.027Z,0.00
2018-03-29T01:13:57.055Z,0.00
2018-03-29T01:14:57.096Z,0.00
2018-03-29T01:15:57.151Z,0.00
2018-03-29T01:16:57.209Z,0.00
2018-03-29T01:17:57.285Z,0.00
2018-03-29T01:18:57.277Z,0.00
2018-03-29T01:19:57.330Z,0.00
2018-03-29T01:20:57.374Z,0.00
2018-03-29T01:21:57.413Z,0.00
2018-03-29T01:22:57.500Z,0.00
2018-03-29T01:23:57.504Z,0.00
2018-03-29T01:24:57.552Z,0.00
2018-03-29T01:25:57.595Z,0.00
2018-03-29T01:26:57.638Z,0.00
2018-03-29T01:27:57.714Z,0.00
2018-03-29T01:28:57.730Z,0.00
2018-03-29T01:29:57.775Z,0.00
2018-03-29T01:30:57.820Z,0.00
2018-03-29T01:31:57.864Z,0.00
2018-03-29T01:32:57.941Z,0.00
2018-03-29T01:33:57.956Z,0.00
2018-03-29T01:34:58.005Z,0.00
2018-03-29T01:35:58.096Z,0.00
2018-03-29T01:36:58.091Z,0.00
2018-03-29T01:37:58.174Z,0.00
2018-03-29T01:38:58.180Z,0.00
2018-03-29T01:39:58.233Z,0.00
2018-03-29T01:40:58.271Z,0.00
2018-03-29T01:41:58.315Z,0.00
2018-03-29T01:42:58.386Z,0.00
2018-03-29T01:43:58.407Z,0.00
2018-03-29T01:44:58.473Z,0.00
2018-03-29T01:45:58.498Z,0.00
2018-03-29T01:46:58.548Z,0.00
2018-03-29T01:47:58.587Z,0.00
2018-03-29T01:48:58.632Z,0.00
2018-03-29T01:49:58.710Z,0.00
2018-03-29T01:50:58.722Z,0.00
2018-03-29T01:51:58.765Z,0.00
2018-03-29T01:52:58.811Z,0.00
2018-03-29T01:53:58.855Z,0.00
2018-03-29T01:54:58.932Z,0.00
2018-03-29T01:55:58.947Z,0.00
2018-03-29T01:56:58.990Z,0.00
2018-03-29T01:57:59.044Z,0.00
2018-03-29T01:58:59.080Z,0.00
2018-03-29T01:59:59.169Z,0.00
2018-03-29T02:00:59.190Z,0.00
2018-03-29T02:01:59.215Z,0.00
2018-03-29T02:02:59.259Z,0.00
2018-03-29T02:03:59.306Z,0.00
2018-03-29T02:04:59.375Z,0.00
2018-03-29T02:05:59.396Z,0.00
2018-03-29T02:06:59.465Z,0.00
2018-03-29T02:07:59.482Z,0.00
2018-03-29T02:08:59.532Z,0.00
2018-03-29T02:09:59.571Z,0.00
2018-03-29T02:10:59.642Z,0.00
2018-03-29T02:11:59.663Z,0.00
2018-03-29T02:12:59.729Z,0.00
2018-03-29T02:13:59.752Z,0.00
2018-03-29T02:14:59.801Z,0.00
2018-03-29T02:15:59.842Z,0.00
2018-03-29T02:16:59.887Z,0.00
2018-03-29T02:17:59.955Z,0.00
2018-03-29T02:18:59.975Z,0.00
2018-03-29T02:20:00.028Z,0.00
2018-03-29T02:21:00.067Z,0.00
2018-03-29T02:22:00.131Z,0.00
2018-03-29T02:23:00.184Z,0.00
2018-03-29T02:24:00.199Z,0.00
2018-03-29T02:25:00.245Z,0.00
2018-03-29T02:26:00.291Z,0.00
2018-03-29T02:27:00.335Z,0.00
2018-03-29T02:28:00.401Z,0.00
2018-03-29T02:29:00.423Z,0.00
2018-03-29T02:30:00.483Z,0.00
2018-03-29T02:31:00.514Z,0.00
2018-03-29T02:32:00.556Z,0.00
2018-03-29T02:33:00.629Z,0.00
2018-03-29T02:34:00.668Z,0.00
2018-03-29T02:35:00.689Z,0.00
2018-03-29T02:36:00.735Z,0.00
2018-03-29T02:37:00.777Z,0.00
2018-03-29T02:38:00.847Z,0.00
2018-03-29T02:39:00.893Z,0.00
2018-03-29T02:40:00.923Z,0.00
2018-03-29T02:41:00.961Z,0.00
2018-03-29T02:42:01.007Z,0.00
2018-03-29T02:43:01.049Z,0.00
2018-03-29T02:44:01.122Z,0.00
2018-03-29T02:45:01.136Z,0.00
2018-03-29T02:46:01.179Z,0.00
2018-03-29T02:47:01.224Z,0.00
2018-03-29T02:48:01.268Z,0.00
2018-03-29T02:49:01.355Z,0.00
2018-03-29T02:50:01.361Z,0.00
2018-03-29T02:51:01.401Z,0.00
2018-03-29T02:52:01.448Z,0.00
2018-03-29T02:53:01.491Z,0.00
2018-03-29T02:54:01.569Z,0.00
2018-03-29T02:55:01.579Z,0.00
2018-03-29T02:56:01.628Z,0.00
2018-03-29T02:57:01.681Z,0.00
2018-03-29T02:58:01.712Z,0.00
2018-03-29T02:59:01.798Z,0.00
2018-03-29T03:00:01.805Z,0.00
2018-03-29T03:01:01.862Z,0.00
2018-03-29T03:02:01.895Z,0.00
2018-03-29T03:03:01.937Z,0.00
2018-03-29T03:04:02.007Z,0.00
2018-03-29T03:05:02.027Z,0.00
2018-03-29T03:06:02.070Z,0.00
2018-03-29T03:07:02.143Z,0.00
2018-03-29T03:08:02.168Z,0.00
2018-03-29T03:09:02.206Z,0.00
2018-03-29T03:10:02.280Z,0.00
2018-03-29T03:11:02.293Z,0.00
2018-03-29T03:12:02.338Z,0.00
2018-03-29T03:13:02.388Z,0.00
2018-03-29T03:14:02.428Z,0.00
2018-03-29T03:15:02.502Z,0.00
2018-03-29T03:16:02.517Z,0.00
2018-03-29T03:17:02.559Z,0.00
2018-03-29T03:18:02.605Z,0.00
2018-03-29T03:19:02.649Z,0.00
2018-03-29T03:20:02.717Z,0.00
2018-03-29T03:21:02.737Z,0.00
2018-03-29T03:22:02.783Z,0.00
2018-03-29T03:23:02.858Z,0.00
2018-03-29T03:24:02.872Z,0.00
2018-03-29T03:25:04.596Z,0.00
2018-03-29T03:26:02.964Z,0.00
2018-03-29T03:27:03.009Z,0.00
2018-03-29T03:28:03.083Z,0.00
2018-03-29T03:29:03.103Z,0.00
2018-03-29T03:30:03.144Z,0.00
2018-03-29T03:31:03.185Z,0.00
2018-03-29T03:32:03.230Z,0.00
2018-03-29T03:33:03.296Z,0.00
2018-03-29T03:34:03.319Z,0.00
2018-03-29T03:35:03.362Z,0.00
2018-03-29T03:36:03.408Z,0.00
2018-03-29T03:37:03.502Z,0.00
2018-03-29T03:38:04.097Z,0.00
2018-03-29T03:39:03.563Z,0.00
2018-03-29T03:40:03.590Z,0.00
2018-03-29T03:41:03.630Z,0.00
2018-03-29T03:42:03.711Z,0.00
2018-03-29T03:43:03.720Z,0.00
2018-03-29T03:44:03.761Z,0.00
2018-03-29T03:45:03.807Z,0.00
2018-03-29T03:46:03.850Z,0.00
2018-03-29T03:47:04.436Z,0.00
2018-03-29T03:48:03.947Z,0.00
2018-03-29T03:49:03.986Z,0.00
2018-03-29T03:50:04.030Z,0.00
2018-03-29T03:51:04.074Z,0.00
2018-03-29T03:52:04.120Z,0.00
2018-03-29T03:53:04.188Z,0.00
2018-03-29T03:54:04.213Z,0.00
2018-03-29T03:55:04.253Z,0.00
2018-03-29T03:56:04.298Z,0.00
2018-03-29T03:57:04.340Z,0.00
2018-03-29T03:58:04.421Z,0.00
2018-03-29T03:59:04.432Z,0.00
2018-03-29T04:00:04.475Z,0.00
2018-03-29T04:01:04.520Z,0.00
2018-03-29T04:02:04.561Z,0.00
2018-03-29T04:03:04.642Z,0.00
2018-03-29T04:04:04.654Z,0.00
2018-03-29T04:05:04.751Z,0.00
2018-03-29T04:06:04.743Z,0.00
2018-03-29T04:07:04.793Z,0.00
2018-03-29T04:08:04.855Z,0.00
2018-03-29T04:09:04.883Z,0.00
2018-03-29T04:10:04.921Z,0.00
2018-03-29T04:11:04.988Z,0.00
2018-03-29T04:12:05.011Z,0.00
2018-03-29T04:13:05.056Z,0.00
2018-03-29T04:14:05.100Z,0.00
2018-03-29T04:15:05.174Z,0.00
2018-03-29T04:16:05.188Z,0.00
2018-03-29T04:17:05.235Z,0.00
2018-03-29T04:18:05.279Z,0.00
2018-03-29T04:19:05.326Z,0.00
2018-03-29T04:20:05.400Z,0.00
2018-03-29T04:21:05.416Z,0.00
2018-03-29T04:22:05.457Z,0.00
2018-03-29T04:23:05.502Z,0.00
2018-03-29T04:24:05.546Z,0.00
2018-03-29T04:25:05.647Z,0.00
2018-03-29T04:26:05.640Z,0.00
2018-03-29T04:27:05.708Z,0.00
2018-03-29T04:28:05.725Z,0.00
2018-03-29T04:29:05.772Z,0.00
2018-03-29T04:30:05.814Z,0.00
2018-03-29T04:31:05.897Z,0.00
2018-03-29T04:32:05.906Z,0.00
2018-03-29T04:33:05.949Z,0.00
2018-03-29T04:34:05.994Z,0.00
2018-03-29T04:35:06.042Z,0.00
2018-03-29T04:36:06.141Z,0.00
2018-03-29T04:37:06.128Z,0.00
2018-03-29T04:38:06.171Z,0.00
2018-03-29T04:39:06.217Z,0.00
2018-03-29T04:40:06.266Z,0.00
2018-03-29T04:41:06.332Z,4.00
2018-03-29T04:42:06.350Z,4.00
2018-03-29T04:43:06.423Z,0.00
2018-03-29T04:44:06.438Z,4.00
2018-03-29T04:45:06.483Z,8.00
2018-03-29T04:46:06.528Z,4.00
2018-03-29T04:47:06.574Z,8.00
2018-03-29T04:48:06.642Z,8.00
2018-03-29T04:49:06.663Z,8.00
2018-03-29T04:50:06.708Z,12.00
2018-03-29T04:51:06.756Z,16.00
2018-03-29T04:52:06.796Z,20.00
2018-03-29T04:53:06.872Z,20.00
2018-03-29T04:54:06.885Z,28.00
2018-03-29T04:55:06.934Z,32.00
2018-03-29T04:56:06.978Z,36.00
2018-03-29T04:57:07.018Z,40.00
2018-03-29T04:58:07.088Z,48.00
2018-03-29T04:59:07.149Z,52.00
2018-03-29T05:00:07.156Z,60.00
2018-03-29T05:01:07.197Z,64.00
2018-03-29T05:02:07.242Z,76.00
2018-03-29T05:03:07.288Z,88.00
2018-03-29T05:04:07.361Z,100.00
2018-03-29T05:05:07.398Z,116.00
2018-03-29T05:06:07.424Z,132.00
2018-03-29T05:07:07.465Z,148.00
2018-03-29T05:08:07.515Z,156.00
2018-03-29T05:09:07.553Z,164.00
2018-03-29T05:10:07.623Z,172.00
2018-03-29T05:11:07.643Z,184.00
2018-03-29T05:12:07.688Z,200.00
2018-03-29T05:13:07.730Z,224.00
2018-03-29T05:14:07.782Z,240.00
2018-03-29T05:15:07.864Z,256.00
2018-03-29T05:16:07.865Z,260.00
2018-03-29T05:17:07.908Z,264.00
2018-03-29T05:18:07.956Z,264.00
2018-03-29T05:19:08.002Z,280.00
2018-03-29T05:20:08.074Z,304.00
2018-03-29T05:21:08.091Z,332.00
2018-03-29T05:22:08.131Z,356.00
2018-03-29T05:23:08.175Z,376.00
2018-03-29T05:24:08.220Z,404.00
2018-03-29T05:25:08.287Z,436.00
2018-03-29T05:26:08.339Z,472.00
2018-03-29T05:27:08.352Z,504.00
2018-03-29T05:28:08.399Z,544.00
2018-03-29T05:29:08.450Z,592.00
2018-03-29T05:30:08.495Z,648.00
2018-03-29T05:31:08.559Z,728.00
2018-03-29T05:32:08.607Z,788.00
2018-03-29T05:33:08.621Z,824.00
2018-03-29T05:34:08.666Z,848.00
2018-03-29T05:35:08.717Z,860.00
2018-03-29T05:36:08.753Z,896.00
2018-03-29T05:37:08.820Z,980.00
2018-03-29T05:38:08.842Z,1104.00
2018-03-29T05:39:08.886Z,1236.00
2018-03-29T05:40:08.989Z,1364.00
2018-03-29T05:41:08.982Z,1456.00
2018-03-29T05:42:09.045Z,1520.00
2018-03-29T05:43:09.070Z,1548.00
2018-03-29T05:44:09.109Z,1576.00
2018-03-29T05:45:09.157Z,1652.00
2018-03-29T05:46:09.200Z,1796.00
2018-03-29T05:47:09.285Z,2024.00
2018-03-29T05:48:09.289Z,2284.00
2018-03-29T05:49:09.333Z,2552.00
2018-03-29T05:50:09.378Z,2796.00
2018-03-29T05:51:09.423Z,3008.00
2018-03-29T05:52:09.498Z,3028.00
2018-03-29T05:53:09.541Z,3020.00
2018-03-29T05:54:09.554Z,3056.00
2018-03-29T05:55:09.601Z,3120.00
2018-03-29T05:56:09.646Z,3168.00
2018-03-29T05:57:09.719Z,3240.00
2018-03-29T05:58:09.733Z,3344.00
2018-03-29T05:59:09.779Z,3372.00
2018-03-29T06:00:09.827Z,3376.00
2018-03-29T06:01:09.922Z,3292.00
2018-03-29T06:02:09.951Z,3316.00
2018-03-29T06:03:09.961Z,3296.00
2018-03-29T06:04:10.003Z,3136.00
2018-03-29T06:05:10.051Z,3056.00
2018-03-29T06:06:10.089Z,3204.00
2018-03-29T06:07:10.160Z,3348.00
2018-03-29T06:08:10.184Z,3344.00
2018-03-29T06:09:10.249Z,3248.00
2018-03-29T06:10:10.269Z,3144.00
2018-03-29T06:11:10.315Z,3044.00
2018-03-29T06:12:10.362Z,2980.00
2018-03-29T06:13:10.405Z,2980.00
2018-03-29T06:14:10.477Z,3012.00
2018-03-29T06:15:10.494Z,3016.00
2018-03-29T06:16:10.539Z,2976.00
2018-03-29T06:17:10.583Z,2940.00
2018-03-29T06:18:10.629Z,3116.00
2018-03-29T06:19:10.698Z,3480.00
2018-03-29T06:20:10.721Z,3804.00
2018-03-29T06:21:10.763Z,4000.00
2018-03-29T06:22:10.814Z,4088.00
2018-03-29T06:23:10.886Z,4216.00
2018-03-29T06:24:10.931Z,4340.00
2018-03-29T06:25:10.940Z,4184.00
2018-03-29T06:26:11.001Z,3860.00
2018-03-29T06:27:11.033Z,3544.00
2018-03-29T06:28:11.077Z,3256.00
2018-03-29T06:29:11.145Z,3016.00
2018-03-29T06:30:11.201Z,2860.00
2018-03-29T06:31:11.212Z,3084.00
2018-03-29T06:32:11.259Z,3716.00
2018-03-29T06:33:11.299Z,4020.00
2018-03-29T06:34:11.345Z,4144.00
2018-03-29T06:35:11.417Z,4232.00
2018-03-29T06:36:11.438Z,4480.00
2018-03-29T06:37:11.480Z,4692.00
2018-03-29T06:38:11.525Z,4564.00
2018-03-29T06:39:11.571Z,4464.00
2018-03-29T06:40:11.640Z,4456.00
2018-03-29T06:41:11.682Z,4748.00
2018-03-29T06:42:11.707Z,4976.00
2018-03-29T06:43:11.750Z,4948.00
2018-03-29T06:44:11.794Z,4852.00
2018-03-29T06:45:11.845Z,4804.00
2018-03-29T06:46:11.915Z,4736.00
2018-03-29T06:47:12.602Z,4820.00
2018-03-29T06:48:11.979Z,4976.00
2018-03-29T06:49:12.018Z,5180.00
2018-03-29T06:50:12.064Z,5432.00
2018-03-29T06:51:12.147Z,5616.00
2018-03-29T06:52:12.154Z,5992.00
2018-03-29T06:53:12.201Z,6492.00
2018-03-29T06:54:12.245Z,7416.00
2018-03-29T06:55:12.297Z,7776.00
2018-03-29T06:56:12.367Z,7620.00
2018-03-29T06:57:12.379Z,6996.00
2018-03-29T06:58:12.421Z,6700.00
2018-03-29T06:59:12.470Z,6832.00
2018-03-29T07:00:13.400Z,7388.00
2018-03-29T07:01:12.591Z,8228.00
2018-03-29T07:02:12.604Z,9248.00
2018-03-29T07:03:12.649Z,10280.00
2018-03-29T07:04:12.696Z,10468.00
2018-03-29T07:05:12.738Z,9820.00
2018-03-29T07:06:12.824Z,9348.00
2018-03-29T07:07:12.826Z,9516.00
2018-03-29T07:08:12.874Z,10100.00
2018-03-29T07:09:12.916Z,10092.00
2018-03-29T07:10:12.962Z,9300.00
2018-03-29T07:11:13.032Z,8796.00
2018-03-29T07:12:13.057Z,8888.00
2018-03-29T07:13:13.130Z,9096.00
2018-03-29T07:14:13.146Z,9616.00
2018-03-29T07:15:13.190Z,10684.00
2018-03-29T07:16:13.234Z,11924.00
2018-03-29T07:17:13.281Z,13196.00
2018-03-29T07:18:13.361Z,14124.00
2018-03-29T07:19:13.371Z,14868.00
2018-03-29T07:20:13.412Z,15608.00
2018-03-29T07:21:13.459Z,17600.00
2018-03-29T07:22:13.501Z,18528.00
2018-03-29T07:23:13.586Z,17088.00
2018-03-29T07:24:13.593Z,15400.00
2018-03-29T07:25:13.637Z,14140.00
2018-03-29T07:26:13.683Z,12980.00
2018-03-29T07:27:13.730Z,11784.00
2018-03-29T07:28:13.803Z,11156.00
2018-03-29T07:29:13.825Z,11060.00
2018-03-29T07:30:13.865Z,11264.00
2018-03-29T07:31:13.910Z,11412.00
2018-03-29T07:32:13.956Z,11476.00
2018-03-29T07:33:14.023Z,11788.00
2018-03-29T07:34:14.068Z,12524.00
2018-03-29T07:35:14.087Z,13808.00
2018-03-29T07:36:14.138Z,14736.00
2018-03-29T07:37:14.181Z,14576.00
2018-03-29T07:38:14.227Z,14312.00
2018-03-29T07:39:14.299Z,14100.00
2018-03-29T07:40:14.439Z,14248.00
2018-03-29T07:41:14.361Z,14652.00
2018-03-29T07:42:14.406Z,15364.00
2018-03-29T07:43:14.453Z,16016.00
2018-03-29T07:44:14.576Z,16668.00
2018-03-29T07:45:14.542Z,17600.00
2018-03-29T07:46:14.589Z,18560.00
2018-03-29T07:47:14.632Z,19168.00
2018-03-29T07:48:14.680Z,19072.00
2018-03-29T07:49:14.749Z,18656.00
2018-03-29T07:50:14.767Z,18784.00
2018-03-29T07:51:14.847Z,19712.00
2018-03-29T07:52:14.862Z,20352.00
2018-03-29T07:53:14.947Z,20256.00
2018-03-29T07:54:14.954Z,19840.00
2018-03-29T07:55:14.996Z,19808.00
2018-03-29T07:56:15.069Z,20096.00
2018-03-29T07:57:15.086Z,20352.00
2018-03-29T07:58:15.134Z,20320.00
2018-03-29T07:59:15.182Z,20000.00
2018-03-29T08:00:15.226Z,19872.00
2018-03-29T08:01:15.297Z,20352.00
2018-03-29T08:02:15.339Z,20992.00
2018-03-29T08:03:15.361Z,21952.00
2018-03-29T08:04:15.412Z,22656.00
2018-03-29T08:05:15.454Z,22784.00
2018-03-29T08:06:15.508Z,21632.00
2018-03-29T08:07:15.583Z,20640.00
2018-03-29T08:08:15.592Z,21184.00
2018-03-29T08:09:15.641Z,22784.00
2018-03-29T08:10:15.685Z,25024.00
2018-03-29T08:11:15.734Z,27584.00
2018-03-29T08:12:15.818Z,28832.00
2018-03-29T08:13:15.820Z,30112.00
2018-03-29T08:14:15.868Z,32768.00
2018-03-29T08:15:15.913Z,34720.00
2018-03-29T08:16:15.961Z,39776.00
2018-03-29T08:17:16.029Z,34560.00
2018-03-29T08:18:16.077Z,31968.00
2018-03-29T08:19:16.098Z,29824.00
2018-03-29T08:20:16.147Z,29056.00
2018-03-29T08:21:16.204Z,27680.00
2018-03-29T08:22:16.242Z,25760.00
2018-03-29T08:23:16.310Z,24928.00
2018-03-29T08:24:16.336Z,26112.00
2018-03-29T08:25:16.379Z,27968.00
2018-03-29T08:26:16.425Z,28608.00
2018-03-29T08:27:16.471Z,26176.00
2018-03-29T08:28:16.564Z,23136.00
2018-03-29T08:29:16.566Z,21920.00
2018-03-29T08:30:16.612Z,22048.00
2018-03-29T08:31:16.659Z,22592.00
2018-03-29T08:32:16.708Z,23360.00
2018-03-29T08:33:16.782Z,24544.00
2018-03-29T08:34:16.831Z,26144.00
2018-03-29T08:35:16.847Z,28032.00
2018-03-29T08:36:16.895Z,28928.00
2018-03-29T08:37:16.944Z,28064.00
2018-03-29T08:38:16.984Z,26432.00
2018-03-29T08:39:17.065Z,24992.00
2018-03-29T08:40:17.080Z,24352.00
2018-03-29T08:41:17.127Z,23616.00
2018-03-29T08:42:17.172Z,22976.00
2018-03-29T08:43:17.219Z,22208.00
2018-03-29T08:44:17.307Z,21472.00
2018-03-29T08:45:17.320Z,20544.00
2018-03-29T08:46:17.359Z,19680.00
2018-03-29T08:47:17.412Z,18944.00
2018-03-29T08:48:17.454Z,18624.00
2018-03-29T08:49:17.523Z,18752.00
2018-03-29T08:50:17.571Z,19392.00
2018-03-29T08:51:17.602Z,20512.00
2018-03-29T08:52:17.641Z,21696.00
2018-03-29T08:53:17.688Z,22208.00
2018-03-29T08:54:17.733Z,21888.00
2018-03-29T08:55:17.803Z,21504.00
2018-03-29T08:56:17.829Z,21696.00
2018-03-29T08:57:17.875Z,22144.00
2018-03-29T08:58:17.922Z,22464.00
2018-03-29T08:59:17.969Z,22208.00
2018-03-29T09:00:18.057Z,22464.00
2018-03-29T09:01:18.059Z,22944.00
2018-03-29T09:02:18.106Z,22624.00
2018-03-29T09:03:18.160Z,22016.00
2018-03-29T09:04:18.200Z,21536.00
2018-03-29T09:05:18.277Z,21248.00
2018-03-29T09:06:18.295Z,20960.00
2018-03-29T09:07:18.341Z,20320.00
2018-03-29T09:08:18.385Z,20000.00
2018-03-29T09:09:18.429Z,19648.00
2018-03-29T09:10:18.502Z,18976.00
2018-03-29T09:11:18.526Z,18912.00
2018-03-29T09:12:18.570Z,19488.00
2018-03-29T09:13:18.618Z,20096.00
2018-03-29T09:14:18.667Z,20512.00
2018-03-29T09:15:18.733Z,20736.00
2018-03-29T09:16:18.756Z,21056.00
2018-03-29T09:17:18.826Z,21344.00
2018-03-29T09:18:18.846Z,21280.00
2018-03-29T09:19:18.892Z,21536.00
2018-03-29T09:20:18.938Z,22176.00
2018-03-29T09:21:19.014Z,22752.00
2018-03-29T09:22:19.032Z,23104.00
2018-03-29T09:23:19.104Z,23584.00
2018-03-29T09:24:19.126Z,24832.00
2018-03-29T09:25:19.169Z,26528.00
2018-03-29T09:26:19.226Z,27360.00
2018-03-29T09:27:19.334Z,26848.00
2018-03-29T09:28:19.337Z,26240.00
2018-03-29T09:29:19.357Z,26080.00
2018-03-29T09:30:19.407Z,25824.00
2018-03-29T09:31:19.445Z,26080.00
2018-03-29T09:32:19.494Z,26624.00
2018-03-29T09:33:19.588Z,26400.00
2018-03-29T09:34:19.585Z,25504.00
2018-03-29T09:35:19.632Z,24928.00
2018-03-29T09:36:19.678Z,25152.00
2018-03-29T09:37:19.726Z,26368.00
2018-03-29T09:38:19.804Z,27904.00
2018-03-29T09:39:19.821Z,29792.00
2018-03-29T09:40:19.865Z,32128.00
2018-03-29T09:41:19.912Z,33760.00
2018-03-29T09:42:19.957Z,34656.00
2018-03-29T09:43:20.035Z,35136.00
2018-03-29T09:44:20.054Z,35552.00
2018-03-29T09:45:20.099Z,37120.00
2018-03-29T09:46:20.144Z,39168.00
2018-03-29T09:47:20.191Z,42016.00
2018-03-29T09:48:20.475Z,44000.00
2018-03-29T09:49:20.299Z,44800.00
2018-03-29T09:50:20.330Z,45248.00
2018-03-29T09:51:20.381Z,44832.00
2018-03-29T09:52:20.424Z,44736.00
2018-03-29T09:53:20.502Z,46208.00
2018-03-29T09:54:20.517Z,46304.00
2018-03-29T09:55:20.566Z,46912.00
2018-03-29T09:56:20.613Z,48160.00
2018-03-29T09:57:20.660Z,48928.00
2018-03-29T09:58:20.738Z,51648.00
2018-03-29T09:59:20.756Z,51328.00
2018-03-29T10:00:20.800Z,53856.00
2018-03-29T10:01:20.847Z,51328.00
2018-03-29T10:02:20.894Z,46848.00
2018-03-29T10:03:20.980Z,43904.00
2018-03-29T10:04:20.993Z,41600.00
2018-03-29T10:05:21.038Z,42208.00
2018-03-29T10:06:21.086Z,42848.00
2018-03-29T10:07:21.138Z,41408.00
2018-03-29T10:08:21.201Z,39904.00
2018-03-29T10:09:21.229Z,36864.00
2018-03-29T10:10:21.301Z,34592.00
2018-03-29T10:11:21.322Z,33056.00
2018-03-29T10:12:21.371Z,32512.00
2018-03-29T10:13:21.415Z,32352.00
2018-03-29T10:14:21.488Z,32672.00
2018-03-29T10:15:21.548Z,33152.00
2018-03-29T10:16:21.560Z,33632.00
2018-03-29T10:17:21.610Z,34528.00
2018-03-29T10:18:21.653Z,35072.00
2018-03-29T10:19:21.702Z,35456.00
2018-03-29T10:20:21.788Z,35424.00
2018-03-29T10:21:21.793Z,35360.00
2018-03-29T10:22:21.845Z,34880.00
2018-03-29T10:23:21.893Z,33568.00
2018-03-29T10:24:21.947Z,34112.00
2018-03-29T10:25:22.008Z,34560.00
2018-03-29T10:26:22.056Z,34624.00
2018-03-29T10:27:22.082Z,33760.00
2018-03-29T10:28:22.128Z,32832.00
2018-03-29T10:29:22.175Z,32288.00
2018-03-29T10:30:22.223Z,32128.00
2018-03-29T10:31:22.304Z,31840.00
2018-03-29T10:32:22.321Z,31584.00
2018-03-29T10:33:22.365Z,31168.00
2018-03-29T10:34:22.414Z,31200.00
2018-03-29T10:35:22.461Z,31200.00
2018-03-29T10:36:22.549Z,31776.00
2018-03-29T10:37:22.553Z,32544.00
2018-03-29T10:38:22.604Z,34112.00
2018-03-29T10:39:22.671Z,35648.00
2018-03-29T10:40:22.699Z,36192.00
2018-03-29T10:41:22.768Z,34048.00
2018-03-29T10:42:22.818Z,32448.00
2018-03-29T10:43:22.844Z,31424.00
2018-03-29T10:44:22.901Z,30784.00
2018-03-29T10:45:22.966Z,30432.00
2018-03-29T10:46:22.986Z,30208.00
2018-03-29T10:47:23.060Z,30560.00
2018-03-29T10:48:23.078Z,30464.00
2018-03-29T10:49:23.124Z,30720.00
2018-03-29T10:50:23.171Z,31712.00
2018-03-29T10:51:23.226Z,33472.00
2018-03-29T10:52:23.293Z,35232.00
2018-03-29T10:53:23.335Z,38272.00
2018-03-29T10:54:23.366Z,39680.00
2018-03-29T10:55:23.414Z,43392.00
2018-03-29T10:56:23.457Z,53184.00
2018-03-29T10:57:23.506Z,62720.00
2018-03-29T10:58:23.582Z,75424.00
2018-03-29T10:59:23.597Z,98080.00
2018-03-29T11:00:23.648Z,55776.00
2018-03-29T11:01:23.691Z,57728.00
2018-03-29T11:02:23.740Z,57856.00
2018-03-29T11:03:23.814Z,56288.00
2018-03-29T11:04:23.837Z,67712.00
2018-03-29T11:05:23.883Z,63744.00
2018-03-29T11:06:23.931Z,59936.00
2018-03-29T11:07:23.980Z,59904.00
2018-03-29T11:08:24.067Z,69760.00
2018-03-29T11:09:24.076Z,63552.00
2018-03-29T11:10:24.124Z,59968.00
2018-03-29T11:11:24.177Z,59584.00
2018-03-29T11:12:24.228Z,53216.00
2018-03-29T11:13:24.293Z,52832.00
2018-03-29T11:14:24.339Z,48128.00
2018-03-29T11:15:24.366Z,46752.00
2018-03-29T11:16:24.414Z,45568.00
2018-03-29T11:17:24.462Z,45376.00
2018-03-29T11:18:24.519Z,44512.00
2018-03-29T11:19:24.584Z,49600.00
2018-03-29T11:20:24.613Z,46976.00
2018-03-29T11:21:24.657Z,45248.00
2018-03-29T11:22:24.707Z,43328.00
2018-03-29T11:23:24.759Z,42336.00
2018-03-29T11:24:24.831Z,43680.00
2018-03-29T11:25:24.852Z,42080.00
2018-03-29T11:26:24.925Z,41792.00
2018-03-29T11:27:24.949Z,42464.00
2018-03-29T11:28:24.998Z,44768.00
2018-03-29T11:29:25.046Z,45696.00
2018-03-29T11:30:25.094Z,44160.00
2018-03-29T11:31:25.177Z,42176.00
2018-03-29T11:32:25.192Z,40192.00
2018-03-29T11:33:25.287Z,39328.00
2018-03-29T11:34:25.292Z,38016.00
2018-03-29T11:35:25.341Z,36800.00
2018-03-29T11:36:25.420Z,36064.00
2018-03-29T11:37:25.436Z,35232.00
2018-03-29T11:38:25.487Z,33952.00
2018-03-29T11:39:25.534Z,33056.00
2018-03-29T11:40:25.583Z,32512.00
2018-03-29T11:41:25.660Z,32288.00
2018-03-29T11:42:25.701Z,32384.00
2018-03-29T11:43:25.732Z,32640.00
2018-03-29T11:44:25.776Z,32896.00
2018-03-29T11:45:25.822Z,32928.00
2018-03-29T11:46:25.873Z,32928.00
2018-03-29T11:47:25.944Z,32864.00
2018-03-29T11:48:25.968Z,32800.00
2018-03-29T11:49:26.016Z,33088.00
2018-03-29T11:50:26.068Z,33344.00
2018-03-29T11:51:26.117Z,33696.00
2018-03-29T11:52:26.194Z,34016.00
2018-03-29T11:53:26.210Z,34304.00
2018-03-29T11:54:26.257Z,34528.00
2018-03-29T11:55:26.306Z,34304.00
2018-03-29T11:56:26.364Z,34176.00
2018-03-29T11:57:26.429Z,34944.00
2018-03-29T11:58:26.454Z,34720.00
2018-03-29T11:59:26.501Z,32224.00
2018-03-29T12:00:26.555Z,30336.00
2018-03-29T12:01:26.593Z,29568.00
2018-03-29T12:02:26.676Z,28960.00
2018-03-29T12:03:26.690Z,27808.00
2018-03-29T12:04:26.738Z,26944.00
2018-03-29T12:05:26.785Z,26592.00
2018-03-29T12:06:26.834Z,26848.00
2018-03-29T12:07:26.917Z,26944.00
2018-03-29T12:08:26.932Z,26176.00
2018-03-29T12:09:26.983Z,25952.00
2018-03-29T12:10:27.027Z,26624.00
2018-03-29T12:11:27.075Z,27200.00
2018-03-29T12:12:27.162Z,26304.00
2018-03-29T12:13:27.176Z,24832.00
2018-03-29T12:14:27.217Z,24416.00
2018-03-29T12:15:27.267Z,24544.00
2018-03-29T12:16:27.315Z,23936.00
2018-03-29T12:17:27.395Z,23072.00
2018-03-29T12:18:27.409Z,22752.00
2018-03-29T12:19:27.464Z,22464.00
2018-03-29T12:20:27.505Z,22528.00
2018-03-29T12:21:27.559Z,21632.00
2018-03-29T12:22:27.627Z,21440.00
2018-03-29T12:23:27.649Z,23424.00
2018-03-29T12:24:27.697Z,24832.00
2018-03-29T12:25:27.970Z,25280.00